Time;durP1;ratioP1;P1;durP2;ratioP2;P2;SDS_P1;SDS_P2;PMS_P1;PMS_P2;Temp;Humidity;BMP_temperature;BMP_pressure;BME280_temperature;BME280_humidity;BME280_pressure;Samples;Min_cycle;Max_cycle;Signal;HPM_P1;HPM_P2
2021/09/18 00:00:03;;;;;;;7.10;6.32;;;;;;;;;;5009882;28;20030;-85
2021/09/18 00:02:29;;;;;;;9.05;7.93;;;;;;;;;;5010630;28;20434;-85
2021/09/18 00:04:54;;;;;;;10.25;8.13;;;;;;;;;;5026650;28;20113;-86
2021/09/18 00:07:19;;;;;;;9.10;8.20;;;;;;;;;;5011312;28;20032;-85
2021/09/18 00:09:44;;;;;;;9.13;8.20;;;;;;;;;;4975180;28;20030;-85
2021/09/18 00:12:09;;;;;;;8.40;7.60;;;;;;;;;;4976522;28;20473;-85
2021/09/18 00:14:39;;;;;;;10.13;9.18;;;;;;;;;;5007531;28;20033;-85
2021/09/18 00:17:05;;;;;;;10.02;8.88;;;;;;;;;;5026466;28;20049;-85
2021/09/18 00:19:31;;;;;;;12.75;9.93;;;;;;;;;;4992726;28;20395;-85
2021/09/18 00:21:56;;;;;;;9.02;8.20;;;;;;;;;;5011208;28;20108;-84
2021/09/18 00:24:21;;;;;;;10.98;9.88;;;;;;;;;;5010064;28;20103;-84
2021/09/18 00:26:46;;;;;;;11.38;9.38;;;;;;;;;;5011971;28;20180;-84
2021/09/18 00:29:12;;;;;;;10.45;9.55;;;;;;;;;;4996655;28;20038;-83
2021/09/18 00:31:37;;;;;;;10.52;9.60;;;;;;;;;;4997198;28;20026;-84
2021/09/18 00:34:02;;;;;;;9.98;9.07;;;;;;;;;;5014482;28;20017;-84
2021/09/18 00:36:27;;;;;;;10.25;9.13;;;;;;;;;;4997197;28;20113;-84
2021/09/18 00:38:52;;;;;;;11.32;10.23;;;;;;;;;;4997038;28;20451;-84
2021/09/18 00:41:18;;;;;;;10.30;9.23;;;;;;;;;;4978798;28;20026;-83
2021/09/18 00:43:48;;;;;;;10.98;9.20;;;;;;;;;;5011414;28;20030;-85
2021/09/18 00:46:13;;;;;;;11.65;10.45;;;;;;;;;;5013826;28;20022;-83
2021/09/18 00:48:38;;;;;;;8.43;7.68;;;;;;;;;;5028980;28;20129;-83
2021/09/18 00:51:04;;;;;;;9.68;8.65;;;;;;;;;;5013053;28;20105;-83
2021/09/18 00:53:30;;;;;;;9.40;8.50;;;;;;;;;;4977381;28;20014;-83
2021/09/18 00:55:55;;;;;;;9.68;8.77;;;;;;;;;;4977173;28;20034;-84
2021/09/18 00:58:20;;;;;;;9.02;8.23;;;;;;;;;;5010211;28;20506;-83
2021/09/18 01:00:45;;;;;;;8.47;7.77;;;;;;;;;;5002833;28;20080;-83
2021/09/18 01:03:10;;;;;;;8.48;7.68;;;;;;;;;;5029679;28;20604;-83
2021/09/18 01:05:36;;;;;;;7.50;6.60;;;;;;;;;;5029007;28;20384;-84
2021/09/18 01:08:02;;;;;;;6.95;5.43;;;;;;;;;;5011369;28;20506;-84
2021/09/18 01:10:27;;;;;;;7.00;6.40;;;;;;;;;;5008218;28;20480;-83
2021/09/18 01:12:58;;;;;;;8.38;6.43;;;;;;;;;;4990106;28;20292;-84
2021/09/18 01:15:25;;;;;;;7.07;6.35;;;;;;;;;;4996362;28;20080;-84
2021/09/18 01:17:50;;;;;;;7.10;6.40;;;;;;;;;;4996270;28;20071;-84
2021/09/18 01:20:15;;;;;;;7.03;6.38;;;;;;;;;;4996200;28;20022;-84
2021/09/18 01:22:41;;;;;;;7.43;6.53;;;;;;;;;;4979616;28;20022;-84
2021/09/18 01:25:07;;;;;;;7.32;6.60;;;;;;;;;;4995879;28;20032;-84
2021/09/18 01:27:32;;;;;;;9.13;7.63;;;;;;;;;;4979839;28;20030;-84
2021/09/18 01:29:57;;;;;;;8.40;7.60;;;;;;;;;;4992876;28;20409;-84
2021/09/18 01:32:22;;;;;;;10.82;8.35;;;;;;;;;;5002937;28;20045;-85
2021/09/18 01:34:49;;;;;;;9.23;8.13;;;;;;;;;;4995758;28;20032;-85
2021/09/18 01:37:14;;;;;;;9.38;8.25;;;;;;;;;;5005770;28;20423;-85
2021/09/18 01:39:39;;;;;;;9.63;8.07;;;;;;;;;;4981364;28;20027;-84
2021/09/18 01:42:04;;;;;;;9.48;7.32;;;;;;;;;;4987670;28;20560;-84
2021/09/18 01:44:29;;;;;;;10.00;8.95;;;;;;;;;;4985850;28;20046;-84
2021/09/18 01:46:55;;;;;;;10.90;8.40;;;;;;;;;;5012977;28;20408;-84
2021/09/18 01:49:20;;;;;;;11.45;8.65;;;;;;;;;;5013047;28;20480;-84
2021/09/18 01:51:57;;;;;;;8.75;7.95;;;;;;;;;;4995172;28;20075;-84
2021/09/18 01:54:22;;;;;;;8.80;7.90;;;;;;;;;;5013298;28;20018;-85
2021/09/18 01:56:47;;;;;;;8.80;7.90;;;;;;;;;;4995313;28;20025;-84
2021/09/18 01:59:13;;;;;;;8.75;7.72;;;;;;;;;;5013545;28;20037;-85
2021/09/18 02:01:38;;;;;;;9.52;7.32;;;;;;;;;;5028525;28;20060;-84
2021/09/18 02:04:03;;;;;;;7.95;7.03;;;;;;;;;;4994693;28;20026;-84
2021/09/18 02:06:28;;;;;;;8.35;7.45;;;;;;;;;;4979289;28;20164;-84
2021/09/18 02:08:53;;;;;;;7.18;5.40;;;;;;;;;;4995202;28;20045;-84
2021/09/18 02:11:19;;;;;;;8.10;7.07;;;;;;;;;;5010714;28;20044;-85
2021/09/18 02:13:44;;;;;;;6.95;6.22;;;;;;;;;;5024661;28;20040;-85
2021/09/18 02:16:09;;;;;;;7.50;6.25;;;;;;;;;;5028201;28;20022;-85
2021/09/18 02:18:34;;;;;;;8.57;6.95;;;;;;;;;;5005818;28;20115;-85
2021/09/18 02:21:00;;;;;;;5.63;5.10;;;;;;;;;;5028036;28;20025;-85
2021/09/18 02:23:25;;;;;;;6.13;5.53;;;;;;;;;;4975612;28;20088;-84
2021/09/18 02:25:50;;;;;;;5.35;4.85;;;;;;;;;;4995023;28;20037;-85
2021/09/18 02:28:15;;;;;;;5.50;5.00;;;;;;;;;;5010699;28;20451;-85
2021/09/18 02:30:41;;;;;;;6.95;5.30;;;;;;;;;;4986333;28;20030;-85
2021/09/18 02:33:06;;;;;;;5.25;4.75;;;;;;;;;;5008349;28;20026;-84
2021/09/18 02:35:32;;;;;;;4.93;3.97;;;;;;;;;;4992634;28;20538;-85
2021/09/18 02:37:58;;;;;;;6.70;3.60;;;;;;;;;;4995303;28;20022;-84
2021/09/18 02:40:24;;;;;;;4.78;3.15;;;;;;;;;;4994251;28;20112;-84
2021/09/18 02:42:51;;;;;;;4.10;2.58;;;;;;;;;;5007986;28;20149;-84
2021/09/18 02:45:17;;;;;;;3.90;2.70;;;;;;;;;;4994256;28;20076;-84
2021/09/18 02:47:42;;;;;;;3.20;2.17;;;;;;;;;;4994671;28;20423;-84
2021/09/18 02:50:09;;;;;;;3.03;1.90;;;;;;;;;;4994082;28;20029;-84
2021/09/18 02:52:34;;;;;;;3.10;2.17;;;;;;;;;;5012633;28;20029;-85
2021/09/18 02:54:59;;;;;;;3.35;2.40;;;;;;;;;;4972266;28;20122;-84
2021/09/18 02:57:25;;;;;;;4.03;2.03;;;;;;;;;;4991748;28;20022;-85
2021/09/18 02:59:50;;;;;;;2.80;1.70;;;;;;;;;;5011082;28;20491;-84
2021/09/18 03:02:15;;;;;;;2.92;1.48;;;;;;;;;;5012183;28;20393;-85
2021/09/18 03:04:40;;;;;;;2.50;1.45;;;;;;;;;;5027171;28;20030;-84
2021/09/18 03:07:06;;;;;;;2.40;1.13;;;;;;;;;;5011208;28;20045;-84
2021/09/18 03:09:31;;;;;;;2.28;0.70;;;;;;;;;;4978105;28;20030;-84
2021/09/18 03:11:56;;;;;;;2.97;0.82;;;;;;;;;;4994496;28;20049;-85
2021/09/18 03:14:21;;;;;;;0.80;0.50;;;;;;;;;;4992377;28;20021;-84
2021/09/18 03:16:47;;;;;;;1.02;0.40;;;;;;;;;;4995291;28;20029;-84
2021/09/18 03:19:12;;;;;;;1.48;0.50;;;;;;;;;;4994310;28;20034;-84
2021/09/18 03:21:37;;;;;;;1.77;0.60;;;;;;;;;;4994334;28;20026;-84
2021/09/18 03:24:02;;;;;;;2.35;0.52;;;;;;;;;;5010812;28;20534;-85
2021/09/18 03:26:28;;;;;;;1.40;0.60;;;;;;;;;;4993939;28;20034;-85
2021/09/18 03:28:53;;;;;;;2.03;0.70;;;;;;;;;;5011650;28;20038;-85
2021/09/18 03:31:18;;;;;;;1.48;0.98;;;;;;;;;;4977828;28;20468;-84
2021/09/18 03:33:44;;;;;;;3.75;0.90;;;;;;;;;;4993931;28;20029;-85
2021/09/18 03:36:09;;;;;;;0.80;0.50;;;;;;;;;;4978906;28;20508;-83
2021/09/18 03:38:34;;;;;;;1.00;0.57;;;;;;;;;;4994009;28;20057;-83
2021/09/18 03:41:00;;;;;;;2.85;0.55;;;;;;;;;;4994100;28;20076;-84
2021/09/18 03:43:25;;;;;;;2.95;0.77;;;;;;;;;;4974921;28;20030;-84
2021/09/18 03:45:51;;;;;;;0.65;0.45;;;;;;;;;;5008726;28;20041;-84
2021/09/18 03:48:17;;;;;;;1.13;0.40;;;;;;;;;;5024650;28;20037;-83
2021/09/18 03:50:42;;;;;;;1.80;0.40;;;;;;;;;;5012073;28;20022;-83
2021/09/18 03:53:07;;;;;;;1.00;0.40;;;;;;;;;;5008770;28;20053;-84
2021/09/18 03:55:32;;;;;;;1.17;0.50;;;;;;;;;;5012113;28;20022;-84
2021/09/18 03:57:58;;;;;;;0.90;0.60;;;;;;;;;;4993920;28;20022;-84
2021/09/18 04:00:23;;;;;;;0.50;0.45;;;;;;;;;;5027333;28;20375;-84
2021/09/18 04:02:48;;;;;;;2.00;0.50;;;;;;;;;;4997340;28;20434;-84
2021/09/18 04:05:13;;;;;;;1.15;0.55;;;;;;;;;;5015306;28;20134;-85
2021/09/18 04:07:38;;;;;;;0.85;0.30;;;;;;;;;;5014149;28;20022;-83
2021/09/18 04:10:04;;;;;;;3.15;0.50;;;;;;;;;;5000418;28;20080;-84
2021/09/18 04:12:29;;;;;;;1.00;0.50;;;;;;;;;;5002016;28;20084;-84
2021/09/18 04:14:54;;;;;;;0.93;0.40;;;;;;;;;;4998613;28;20026;-85
2021/09/18 04:17:19;;;;;;;1.98;0.68;;;;;;;;;;4996332;28;20383;-85
2021/09/18 04:19:45;;;;;;;3.70;0.73;;;;;;;;;;4996735;28;20034;-85
2021/09/18 04:22:10;;;;;;;0.75;0.50;;;;;;;;;;5012110;28;20494;-84
2021/09/18 04:24:36;;;;;;;1.70;0.85;;;;;;;;;;4996585;28;20030;-84
2021/09/18 04:27:01;;;;;;;2.50;1.10;;;;;;;;;;4997512;28;20383;-84
2021/09/18 04:29:26;;;;;;;2.70;1.40;;;;;;;;;;5012340;28;20045;-84
2021/09/18 04:31:52;;;;;;;2.25;1.10;;;;;;;;;;5029397;28;20036;-83
2021/09/18 04:34:17;;;;;;;3.80;0.93;;;;;;;;;;5011358;28;20053;-83
2021/09/18 04:36:42;;;;;;;2.38;0.75;;;;;;;;;;5014915;28;20026;-84
2021/09/18 04:39:07;;;;;;;1.08;0.80;;;;;;;;;;4980582;28;20127;-83
2021/09/18 04:41:32;;;;;;;1.95;0.93;;;;;;;;;;4976866;28;20474;-83
2021/09/18 04:43:58;;;;;;;2.50;0.90;;;;;;;;;;4972530;28;20034;-83
2021/09/18 04:46:25;;;;;;;4.18;1.73;;;;;;;;;;4977438;28;20022;-83
2021/09/18 04:48:50;;;;;;;2.47;1.20;;;;;;;;;;4977153;28;20073;-83
2021/09/18 04:51:16;;;;;;;3.25;1.25;;;;;;;;;;4996889;28;20050;-84
2021/09/18 04:53:41;;;;;;;3.53;0.90;;;;;;;;;;4976282;28;20022;-82
2021/09/18 04:56:06;;;;;;;4.05;0.80;;;;;;;;;;4993291;28;20072;-83
2021/09/18 04:58:31;;;;;;;2.45;1.15;;;;;;;;;;4996822;28;20025;-82
2021/09/18 05:00:57;;;;;;;4.28;0.80;;;;;;;;;;4996749;28;20030;-82
2021/09/18 05:03:22;;;;;;;1.20;0.60;;;;;;;;;;5013357;28;20064;-82
2021/09/18 05:05:48;;;;;;;1.95;0.90;;;;;;;;;;4976808;28;20034;-82
2021/09/18 05:08:13;;;;;;;4.32;1.02;;;;;;;;;;4995132;28;20018;-78
2021/09/18 05:10:38;;;;;;;2.65;0.90;;;;;;;;;;4980010;28;20396;-83
2021/09/18 05:13:03;;;;;;;2.95;1.00;;;;;;;;;;4976216;28;21167;-89
2021/09/18 05:15:29;;;;;;;2.10;0.50;;;;;;;;;;4996228;28;20469;-88
2021/09/18 05:17:54;;;;;;;1.42;0.70;;;;;;;;;;4996282;28;20018;-83
2021/09/18 05:20:20;;;;;;;1.30;0.60;;;;;;;;;;4994825;28;20100;-80
2021/09/18 05:22:45;;;;;;;2.72;0.90;;;;;;;;;;5012248;28;20030;-85
2021/09/18 05:25:10;;;;;;;3.20;1.10;;;;;;;;;;4978553;28;20030;-82
2021/09/18 05:27:35;;;;;;;4.43;1.23;;;;;;;;;;4996123;28;20527;-82
2021/09/18 05:30:01;;;;;;;2.45;0.80;;;;;;;;;;5013327;28;20049;-82
2021/09/18 05:32:26;;;;;;;1.80;0.65;;;;;;;;;;4979322;28;20121;-79
2021/09/18 05:34:51;;;;;;;1.00;0.50;;;;;;;;;;5016198;28;20402;-85
2021/09/18 05:37:17;;;;;;;1.42;0.80;;;;;;;;;;4975019;28;20053;-82
2021/09/18 05:39:42;;;;;;;3.03;0.70;;;;;;;;;;4996104;28;20101;-80
2021/09/18 05:42:08;;;;;;;2.70;0.88;;;;;;;;;;4995657;28;20475;-83
2021/09/18 05:44:34;;;;;;;2.45;0.50;;;;;;;;;;4995321;28;20026;-82
2021/09/18 05:46:59;;;;;;;0.95;0.65;;;;;;;;;;4978999;28;20037;-81
2021/09/18 05:49:24;;;;;;;1.55;0.80;;;;;;;;;;4994597;28;20022;-82
2021/09/18 05:51:49;;;;;;;2.58;0.68;;;;;;;;;;4995019;28;20616;-82
2021/09/18 05:54:15;;;;;;;2.20;0.70;;;;;;;;;;5023483;28;20033;-84
2021/09/18 05:56:40;;;;;;;1.58;0.55;;;;;;;;;;5015818;28;20029;-85
2021/09/18 05:59:05;;;;;;;1.42;0.50;;;;;;;;;;4995468;28;20026;-84
2021/09/18 06:01:30;;;;;;;1.63;0.50;;;;;;;;;;4988448;28;20045;-84
2021/09/18 06:03:55;;;;;;;1.38;0.30;;;;;;;;;;5007743;28;20022;-81
2021/09/18 06:06:21;;;;;;;0.65;0.63;;;;;;;;;;4978821;28;20510;-82
2021/09/18 06:08:46;;;;;;;2.40;0.50;;;;;;;;;;5012733;28;20369;-81
2021/09/18 06:11:11;;;;;;;1.48;0.52;;;;;;;;;;4995611;28;20029;-85
2021/09/18 06:13:36;;;;;;;1.52;0.50;;;;;;;;;;4973977;28;20014;-84
2021/09/18 06:16:02;;;;;;;2.63;0.40;;;;;;;;;;4975469;28;20022;-84
2021/09/18 06:18:27;;;;;;;2.20;0.70;;;;;;;;;;4991299;28;20041;-80
2021/09/18 06:20:52;;;;;;;2.85;0.40;;;;;;;;;;5013403;28;20079;-81
2021/09/18 06:23:17;;;;;;;0.90;0.73;;;;;;;;;;5011902;28;20030;-81
2021/09/18 06:25:43;;;;;;;2.17;0.45;;;;;;;;;;4995171;28;20018;-81
2021/09/18 06:28:08;;;;;;;1.63;0.60;;;;;;;;;;4978872;28;20416;-81
2021/09/18 06:30:33;;;;;;;2.10;0.60;;;;;;;;;;5012097;28;20476;-81
2021/09/18 06:32:58;;;;;;;0.70;0.50;;;;;;;;;;4995871;28;20053;-81
2021/09/18 06:35:24;;;;;;;2.80;0.55;;;;;;;;;;4994795;28;20109;-82
2021/09/18 06:37:49;;;;;;;2.65;1.63;;;;;;;;;;5012360;28;20018;-82
2021/09/18 06:40:16;;;;;;;2.35;1.40;;;;;;;;;;5012001;28;20073;-82
2021/09/18 06:42:42;;;;;;;2.45;0.90;;;;;;;;;;4990064;28;20476;-81
2021/09/18 06:45:07;;;;;;;2.67;0.60;;;;;;;;;;4975564;28;20057;-81
2021/09/18 06:47:33;;;;;;;1.35;0.50;;;;;;;;;;4991432;28;20022;-82
2021/09/18 06:49:58;;;;;;;0.32;0.32;;;;;;;;;;5007495;28;20049;-82
2021/09/18 06:52:23;;;;;;;0.55;0.40;;;;;;;;;;5003732;28;20468;-82
2021/09/18 06:54:49;;;;;;;2.22;1.15;;;;;;;;;;4994202;28;20025;-81
2021/09/18 06:57:14;;;;;;;1.30;0.57;;;;;;;;;;4994771;28;20018;-82
2021/09/18 06:59:39;;;;;;;1.75;0.40;;;;;;;;;;4994362;28;20498;-80
2021/09/18 07:02:05;;;;;;;1.70;0.40;;;;;;;;;;4993978;28;20323;-82
2021/09/18 07:04:30;;;;;;;1.65;0.40;;;;;;;;;;4992722;28;20053;-81
2021/09/18 07:06:55;;;;;;;1.70;0.95;;;;;;;;;;4978177;28;20065;-81
2021/09/18 07:09:20;;;;;;;1.90;0.30;;;;;;;;;;4978410;28;20053;-81
2021/09/18 07:11:45;;;;;;;1.85;0.30;;;;;;;;;;5013455;28;20045;-81
2021/09/18 07:14:11;;;;;;;0.32;0.30;;;;;;;;;;5004704;28;20030;-82
2021/09/18 07:16:36;;;;;;;0.63;0.30;;;;;;;;;;5010204;28;20030;-81
2021/09/18 07:19:01;;;;;;;2.35;0.30;;;;;;;;;;5021538;28;20014;-82
2021/09/18 07:21:26;;;;;;;1.80;0.45;;;;;;;;;;5004897;28;20040;-82
2021/09/18 07:23:51;;;;;;;0.65;0.40;;;;;;;;;;4983375;28;20033;-82
2021/09/18 07:26:17;;;;;;;1.00;0.45;;;;;;;;;;5002087;28;20048;-82
2021/09/18 07:28:42;;;;;;;1.88;0.50;;;;;;;;;;4997659;28;20053;-82
2021/09/18 07:31:07;;;;;;;0.68;0.30;;;;;;;;;;4997579;28;20116;-82
2021/09/18 07:33:32;;;;;;;1.30;0.60;;;;;;;;;;4989743;28;20419;-81
2021/09/18 07:35:58;;;;;;;0.75;0.50;;;;;;;;;;4988441;28;20515;-82
2021/09/18 07:38:23;;;;;;;0.70;0.52;;;;;;;;;;5011199;28;20042;-82
2021/09/18 07:40:53;;;;;;;0.57;0.38;;;;;;;;;;5012948;28;20030;-79
2021/09/18 07:43:18;;;;;;;0.93;0.40;;;;;;;;;;4994534;28;20031;-83
2021/09/18 07:45:43;;;;;;;0.30;0.20;;;;;;;;;;5015596;28;20502;-83
2021/09/18 07:48:08;;;;;;;0.50;0.30;;;;;;;;;;4983620;28;20046;-83
2021/09/18 07:50:34;;;;;;;0.40;0.30;;;;;;;;;;4997502;28;20030;-82
2021/09/18 07:52:59;;;;;;;0.30;0.30;;;;;;;;;;5006173;28;20022;-82
2021/09/18 07:55:26;;;;;;;1.48;0.50;;;;;;;;;;5020270;28;20068;-84
2021/09/18 07:57:51;;;;;;;1.70;0.30;;;;;;;;;;5013903;28;20030;-85
2021/09/18 08:00:16;;;;;;;0.30;0.30;;;;;;;;;;4998347;28;20434;-83
2021/09/18 08:02:41;;;;;;;1.08;0.35;;;;;;;;;;4998406;28;20406;-84
2021/09/18 08:05:07;;;;;;;0.55;0.30;;;;;;;;;;4999303;28;20029;-82
2021/09/18 08:07:32;;;;;;;1.65;0.30;;;;;;;;;;4997924;28;20029;-82
2021/09/18 08:09:57;;;;;;;0.93;0.20;;;;;;;;;;4997476;28;20113;-84
2021/09/18 08:12:23;;;;;;;0.65;0.38;;;;;;;;;;5002948;28;20045;-81
2021/09/18 08:14:49;;;;;;;1.20;0.75;;;;;;;;;;4974549;28;20022;-82
2021/09/18 08:17:14;;;;;;;0.60;0.30;;;;;;;;;;4996870;28;20081;-81
2021/09/18 08:19:40;;;;;;;0.50;0.30;;;;;;;;;;4999795;28;20029;-81
2021/09/18 08:22:05;;;;;;;1.40;0.35;;;;;;;;;;4997773;28;20386;-80
2021/09/18 08:24:30;;;;;;;0.55;0.30;;;;;;;;;;4995704;28;20080;-88
2021/09/18 08:26:55;;;;;;;0.57;0.17;;;;;;;;;;5008555;28;20465;-88
2021/09/18 08:29:28;;;;;;;0.20;0.20;;;;;;;;;;4987588;28;20300;-89
2021/09/18 08:31:56;;;;;;;1.00;0.20;;;;;;;;;;4997367;28;20080;-88
2021/09/18 08:34:22;;;;;;;0.52;0.15;;;;;;;;;;4982756;28;20030;-87
2021/09/18 08:36:47;;;;;;;0.15;0.10;;;;;;;;;;5003673;28;20474;-87
2021/09/18 08:39:12;;;;;;;0.38;0.20;;;;;;;;;;5032388;28;20056;-89
2021/09/18 08:41:37;;;;;;;0.35;0.10;;;;;;;;;;5012327;28;20048;-90
2021/09/18 08:44:03;;;;;;;0.70;0.20;;;;;;;;;;4994849;28;20026;-89
2021/09/18 08:46:28;;;;;;;0.63;0.17;;;;;;;;;;4979510;28;20034;-85
2021/09/18 08:48:54;;;;;;;0.40;0.40;;;;;;;;;;4977383;28;20026;-88
2021/09/18 08:51:23;;;;;;;1.15;0.25;;;;;;;;;;4981727;28;20378;-87
2021/09/18 08:53:49;;;;;;;0.98;0.20;;;;;;;;;;4997257;28;20080;-86
2021/09/18 08:56:16;;;;;;;0.47;0.20;;;;;;;;;;4996622;28;20071;-88
2021/09/18 08:59:07;;;;;;;0.75;0.30;;;;;;;;;;4997995;28;20037;-90
2021/09/18 09:01:33;;;;;;;0.75;0.30;;;;;;;;;;4969270;28;20143;-90
2021/09/18 09:04:01;;;;;;;0.10;0.10;;;;;;;;;;4977144;28;20064;-86
2021/09/18 09:06:38;;;;;;;0.30;0.20;;;;;;;;;;4995839;28;20010;-87
2021/09/18 09:09:04;;;;;;;0.77;0.15;;;;;;;;;;4997206;28;20033;-87
2021/09/18 09:11:29;;;;;;;0.40;0.10;;;;;;;;;;4980296;28;20026;-86
2021/09/18 09:14:02;;;;;;;0.20;0.10;;;;;;;;;;4973018;28;20034;-86
2021/09/18 09:16:28;;;;;;;0.28;0.20;;;;;;;;;;4980391;28;20105;-87
2021/09/18 09:18:53;;;;;;;0.82;0.20;;;;;;;;;;4995607;28;20026;-85
2021/09/18 09:21:20;;;;;;;1.38;0.20;;;;;;;;;;5029617;28;20084;-85
2021/09/18 09:23:46;;;;;;;0.20;0.20;;;;;;;;;;4994215;28;20108;-88
2021/09/18 09:26:14;;;;;;;0.25;0.20;;;;;;;;;;4994122;28;20049;-88
2021/09/18 09:28:41;;;;;;;0.20;0.10;;;;;;;;;;4993159;28;20044;-87
2021/09/18 09:31:12;;;;;;;1.48;0.20;;;;;;;;;;4989679;28;20018;-86
2021/09/18 09:33:55;;;;;;;0.10;0.00;;;;;;;;;;5004630;28;20049;-87
2021/09/18 09:36:20;;;;;;;1.25;0.10;;;;;;;;;;4989073;28;20407;-85
2021/09/18 09:38:52;;;;;;;0.60;0.10;;;;;;;;;;5011742;28;20029;-85
2021/09/18 09:41:31;;;;;;;1.55;0.25;;;;;;;;;;4996350;28;20037;-85
2021/09/18 09:43:56;;;;;;;1.48;0.20;;;;;;;;;;4990897;28;20026;-84
2021/09/18 09:46:22;;;;;;;0.77;0.10;;;;;;;;;;4987806;28;20063;-85
2021/09/18 09:48:47;;;;;;;2.75;0.43;;;;;;;;;;4974144;28;20483;-87
2021/09/18 09:51:12;;;;;;;0.25;0.20;;;;;;;;;;4990636;28;20017;-82
2021/09/18 09:53:37;;;;;;;1.73;0.20;;;;;;;;;;4974123;28;20399;-87
2021/09/18 09:56:22;;;;;;;1.50;0.20;;;;;;;;;;4975177;28;20042;-87
2021/09/18 09:58:58;;;;;;;2.22;1.05;;;;;;;;;;4987475;28;20300;-85
2021/09/18 10:01:23;;;;;;;0.75;0.20;;;;;;;;;;4987744;28;20104;-86
2021/09/18 10:03:49;;;;;;;1.77;0.25;;;;;;;;;;4976623;28;20152;-89
2021/09/18 10:06:14;;;;;;;0.73;0.40;;;;;;;;;;4973248;28;20096;-84
2021/09/18 10:08:41;;;;;;;4.38;0.30;;;;;;;;;;5001562;28;20100;-85
2021/09/18 10:11:07;;;;;;;1.10;0.30;;;;;;;;;;4993108;28;20014;-84
2021/09/18 10:13:33;;;;;;;1.73;0.47;;;;;;;;;;4994005;28;20068;-85
2021/09/18 10:15:59;;;;;;;0.65;0.40;;;;;;;;;;4992743;28;20041;-81
2021/09/18 10:18:29;;;;;;;0.85;0.40;;;;;;;;;;4978082;28;20029;-81
2021/09/18 10:23:22;;;;;;;1.17;0.60;;;;;;;;;;5007567;28;20030;-85
2021/09/18 10:25:49;;;;;;;1.40;0.60;;;;;;;;;;4991959;28;20026;-80
2021/09/18 10:28:21;;;;;;;0.75;0.30;;;;;;;;;;4994932;28;20042;-82
2021/09/18 10:30:48;;;;;;;1.70;0.35;;;;;;;;;;4994862;28;20032;-86
2021/09/18 10:33:28;;;;;;;0.77;0.30;;;;;;;;;;4993952;28;20024;-94
2021/09/18 10:42:31;;;;;;;1.23;0.82;;;;;;;;;;5006222;28;20036;-86
2021/09/18 10:45:28;;;;;;;1.67;0.93;;;;;;;;;;4987064;28;20026;-88
2021/09/18 10:50:59;;;;;;;1.05;0.60;;;;;;;;;;4881609;29;20033;-90
2021/09/18 10:54:15;;;;;;;2.40;0.80;;;;;;;;;;4872987;29;20024;-88
2021/09/18 10:57:18;;;;;;;2.22;0.90;;;;;;;;;;4848967;29;20036;-89
2021/09/18 10:59:48;;;;;;;1.25;0.80;;;;;;;;;;4808450;29;20424;-86
2021/09/18 11:02:39;;;;;;;2.00;0.82;;;;;;;;;;4836131;29;20111;-86
2021/09/18 11:05:28;;;;;;;0.75;0.70;;;;;;;;;;4837484;29;20037;-89
2021/09/18 11:07:55;;;;;;;0.40;0.32;;;;;;;;;;4838442;29;20529;-89
2021/09/18 11:10:21;;;;;;;4.07;0.88;;;;;;;;;;4836369;29;20065;-85
2021/09/18 11:13:04;;;;;;;1.00;0.88;;;;;;;;;;4829880;29;20076;-86
2021/09/18 11:15:43;;;;;;;2.50;0.65;;;;;;;;;;4833394;29;20587;-87
2021/09/18 11:18:09;;;;;;;1.73;0.80;;;;;;;;;;4851593;29;20102;-84
2021/09/18 11:20:35;;;;;;;1.77;0.80;;;;;;;;;;4839325;29;20033;-86
2021/09/18 11:23:01;;;;;;;2.47;0.80;;;;;;;;;;4841499;29;20029;-86
2021/09/18 11:25:26;;;;;;;3.17;1.35;;;;;;;;;;4840008;29;20034;-86
2021/09/18 11:28:07;;;;;;;1.00;0.90;;;;;;;;;;4872419;29;20451;-83
2021/09/18 11:30:39;;;;;;;3.13;1.33;;;;;;;;;;4905317;29;20048;-84
2021/09/18 11:33:04;;;;;;;1.60;1.17;;;;;;;;;;4971618;28;20061;-85
2021/09/18 11:35:29;;;;;;;4.10;1.92;;;;;;;;;;4974666;28;20058;-88
2021/09/18 11:37:59;;;;;;;3.67;1.58;;;;;;;;;;4990969;28;20105;-86
2021/09/18 11:40:26;;;;;;;1.27;1.15;;;;;;;;;;4954856;28;20035;-88
2021/09/18 11:42:54;;;;;;;2.72;1.40;;;;;;;;;;4966538;28;20038;-88
2021/09/18 11:45:20;;;;;;;2.10;1.80;;;;;;;;;;4973949;28;20015;-86
2021/09/18 11:47:47;;;;;;;1.80;1.45;;;;;;;;;;4957649;28;20019;-87
2021/09/18 11:50:28;;;;;;;2.03;1.60;;;;;;;;;;4974884;28;20026;-86
2021/09/18 11:52:54;;;;;;;1.05;1.00;;;;;;;;;;4976206;28;20027;-87
2021/09/18 11:55:25;;;;;;;2.75;1.48;;;;;;;;;;4971870;28;20082;-86
2021/09/18 11:58:01;;;;;;;2.28;1.40;;;;;;;;;;4990094;28;20511;-87
2021/09/18 12:00:26;;;;;;;1.48;1.38;;;;;;;;;;4977571;28;20030;-87
2021/09/18 12:02:54;;;;;;;1.15;1.00;;;;;;;;;;4975804;28;20381;-85
2021/09/18 12:05:22;;;;;;;3.58;1.63;;;;;;;;;;4974679;28;20507;-88
2021/09/18 12:07:48;;;;;;;2.55;1.60;;;;;;;;;;4973354;28;20021;-87
2021/09/18 12:10:15;;;;;;;3.17;1.52;;;;;;;;;;4972703;28;20069;-87
2021/09/18 12:12:40;;;;;;;1.95;1.77;;;;;;;;;;4968703;28;20031;-87
2021/09/18 12:15:06;;;;;;;3.80;1.60;;;;;;;;;;4991461;28;20474;-87
2021/09/18 12:17:36;;;;;;;2.08;1.70;;;;;;;;;;4996734;28;20029;-86
2021/09/18 12:20:06;;;;;;;0.93;0.70;;;;;;;;;;4994434;28;20018;-85
2021/09/18 12:22:31;;;;;;;3.97;1.90;;;;;;;;;;4978798;28;20018;-88
2021/09/18 12:24:57;;;;;;;2.80;1.20;;;;;;;;;;4978239;28;20037;-86
2021/09/18 12:27:29;;;;;;;3.85;1.95;;;;;;;;;;4961502;28;20477;-86
2021/09/18 12:30:06;;;;;;;3.17;1.50;;;;;;;;;;4977437;28;20054;-79
2021/09/18 12:32:32;;;;;;;1.98;1.73;;;;;;;;;;4974691;28;20142;-84
2021/09/18 12:34:58;;;;;;;2.00;1.90;;;;;;;;;;4976887;28;20055;-83
2021/09/18 12:37:28;;;;;;;1.33;0.93;;;;;;;;;;4977140;28;20022;-83
2021/09/18 12:39:54;;;;;;;1.63;1.52;;;;;;;;;;4985318;28;20026;-87
2021/09/18 12:42:19;;;;;;;4.30;1.73;;;;;;;;;;4970686;28;20038;-85
2021/09/18 12:44:44;;;;;;;1.70;1.60;;;;;;;;;;4953270;28;20027;-85
2021/09/18 12:47:25;;;;;;;2.35;2.15;;;;;;;;;;4954750;28;20031;-87
2021/09/18 12:49:51;;;;;;;1.00;0.68;;;;;;;;;;4975363;28;20034;-86
2021/09/18 12:52:16;;;;;;;2.65;2.45;;;;;;;;;;4972576;28;20014;-87
2021/09/18 12:54:45;;;;;;;3.72;2.53;;;;;;;;;;4969550;28;20033;-86
2021/09/18 12:57:12;;;;;;;2.78;2.58;;;;;;;;;;5004466;28;20019;-87
2021/09/18 12:59:41;;;;;;;4.25;3.90;;;;;;;;;;4992335;28;20030;-86
2021/09/18 13:02:06;;;;;;;2.85;2.65;;;;;;;;;;4971073;28;20429;-89
2021/09/18 13:04:31;;;;;;;5.25;4.85;;;;;;;;;;4973249;28;20053;-87
2021/09/18 13:06:57;;;;;;;5.20;4.75;;;;;;;;;;4957518;28;20130;-82
2021/09/18 13:09:23;;;;;;;6.45;5.97;;;;;;;;;;4982311;28;20031;-84
2021/09/18 13:11:50;;;;;;;7.43;6.82;;;;;;;;;;4960367;28;20030;-85
2021/09/18 13:14:17;;;;;;;8.07;7.47;;;;;;;;;;4972010;28;20051;-81
2021/09/18 13:16:52;;;;;;;7.90;7.30;;;;;;;;;;4970241;28;20023;-80
2021/09/18 13:19:17;;;;;;;6.93;6.32;;;;;;;;;;4980614;28;20022;-84
2021/09/18 13:21:42;;;;;;;4.70;4.30;;;;;;;;;;4980308;28;20057;-84
2021/09/18 13:24:08;;;;;;;7.20;6.50;;;;;;;;;;4960515;28;20488;-83
2021/09/18 13:26:33;;;;;;;7.82;7.22;;;;;;;;;;4976879;28;20022;-84
2021/09/18 13:29:02;;;;;;;7.90;7.30;;;;;;;;;;4976793;28;20408;-84
2021/09/18 13:31:27;;;;;;;6.90;6.40;;;;;;;;;;4950633;28;20015;-85
2021/09/18 13:33:52;;;;;;;6.15;5.72;;;;;;;;;;4966212;28;20019;-85
2021/09/18 13:36:17;;;;;;;6.57;6.07;;;;;;;;;;4975623;28;20029;-87
2021/09/18 13:38:42;;;;;;;6.10;5.60;;;;;;;;;;4957163;28;20039;-89
2021/09/18 13:41:08;;;;;;;5.85;5.35;;;;;;;;;;4941259;28;20538;-87
2021/09/18 13:43:33;;;;;;;7.22;6.72;;;;;;;;;;4954801;28;20065;-87
2021/09/18 13:45:58;;;;;;;6.55;6.15;;;;;;;;;;4957125;28;20039;-86
2021/09/18 13:48:23;;;;;;;6.30;5.72;;;;;;;;;;4957125;28;20027;-85
2021/09/18 13:50:48;;;;;;;6.97;6.38;;;;;;;;;;4972635;28;20022;-86
2021/09/18 13:53:14;;;;;;;5.80;5.40;;;;;;;;;;4957295;28;20461;-87
2021/09/18 13:55:39;;;;;;;7.50;7.00;;;;;;;;;;4936875;28;20543;-83
2021/09/18 13:58:04;;;;;;;7.88;7.28;;;;;;;;;;4938181;28;20083;-84
2021/09/18 14:00:29;;;;;;;6.03;5.63;;;;;;;;;;4967443;28;20045;-85
2021/09/18 14:02:54;;;;;;;6.38;5.88;;;;;;;;;;4974659;28;20130;-86
2021/09/18 14:05:20;;;;;;;6.50;6.00;;;;;;;;;;4938658;28;20034;-87
2021/09/18 14:07:45;;;;;;;6.93;6.35;;;;;;;;;;4954419;28;20031;-89
2021/09/18 14:10:10;;;;;;;7.35;6.75;;;;;;;;;;4937912;29;20385;-88
2021/09/18 14:12:36;;;;;;;6.30;5.90;;;;;;;;;;4941843;28;20513;-87
2021/09/18 14:15:02;;;;;;;7.60;7.00;;;;;;;;;;4970963;28;20027;-87
2021/09/18 14:17:27;;;;;;;5.90;5.40;;;;;;;;;;4956654;28;20030;-86
2021/09/18 14:19:52;;;;;;;6.03;5.63;;;;;;;;;;4940536;28;20035;-85
2021/09/18 14:22:18;;;;;;;5.67;5.27;;;;;;;;;;4939373;28;20039;-85
2021/09/18 14:24:43;;;;;;;6.80;6.30;;;;;;;;;;4981645;28;20294;-86
2021/09/18 14:27:08;;;;;;;6.70;6.10;;;;;;;;;;4987357;28;20042;-87
2021/09/18 14:29:35;;;;;;;6.05;5.65;;;;;;;;;;4970476;28;20504;-87
2021/09/18 14:32:01;;;;;;;7.07;6.47;;;;;;;;;;4991619;28;20034;-85
2021/09/18 14:34:27;;;;;;;5.78;5.28;;;;;;;;;;4992561;28;20018;-87
2021/09/18 14:36:52;;;;;;;6.07;5.47;;;;;;;;;;4992665;28;20097;-86
2021/09/18 14:39:17;;;;;;;6.90;6.40;;;;;;;;;;4959719;28;20469;-87
2021/09/18 14:41:42;;;;;;;6.90;6.40;;;;;;;;;;4993118;28;20476;-86
2021/09/18 14:44:08;;;;;;;6.82;6.32;;;;;;;;;;4968318;28;20026;-86
2021/09/18 14:46:34;;;;;;;5.63;5.28;;;;;;;;;;4991575;28;20037;-87
2021/09/18 14:48:59;;;;;;;6.25;5.80;;;;;;;;;;4964344;28;20030;-87
2021/09/18 14:51:24;;;;;;;5.47;5.07;;;;;;;;;;4974580;28;20050;-86